createdAt,value
2018-03-06T00:01:33.567Z,74.1
2018-03-06T00:11:44.121Z,76
2018-03-06T00:21:47.345Z,62.6
2018-03-06T00:31:57.360Z,82.3
2018-03-06T00:42:03.001Z,83.3
2018-03-06T00:52:15.270Z,85.8
2018-03-06T01:02:22.850Z,89
2018-03-06T01:12:30.978Z,69.8
2018-03-06T01:22:36.559Z,75
2018-03-06T01:32:48.653Z,96.6
2018-03-06T01:42:56.640Z,95.7
2018-03-06T01:53:16.090Z,73.2
2018-03-06T02:03:26.343Z,95.9
2018-03-06T02:13:38.431Z,70.5
2018-03-06T02:23:47.837Z,93.8
2018-03-06T02:34:04.532Z,76.6
2018-03-06T02:44:09.025Z,95.3
2018-03-06T02:54:23.773Z,74.1
2018-03-06T03:04:39.351Z,76.6
2018-03-06T03:14:45.564Z,97.6
2018-03-06T03:24:55.797Z,77.2
2018-03-06T03:35:09.491Z,103.3
2018-03-06T03:45:22.673Z,98.7
2018-03-06T03:55:31.543Z,100.1
2018-03-06T04:05:37.144Z,79
2018-03-06T04:15:50.463Z,101.7
2018-03-06T04:26:00.707Z,83.7
2018-03-06T04:36:13.678Z,77.9
2018-03-06T04:46:17.087Z,106
2018-03-06T04:56:28.219Z,101.1
2018-03-06T05:06:43.276Z,78.3
2018-03-06T05:16:50.014Z,102
2018-03-06T05:26:56.785Z,98.1
2018-03-06T05:37:07.066Z,99
2018-03-06T05:47:14.598Z,98.5
2018-03-06T05:57:31.348Z,77.8
2018-03-06T06:07:37.094Z,94.8
2018-03-06T06:17:42.912Z,118.8
2018-03-06T06:27:41.855Z,136.4
2018-03-06T06:37:40.780Z,100.7
2018-03-06T06:47:40.036Z,100.9
2018-03-06T06:57:38.712Z,88.8
2018-03-06T07:07:40.820Z,103.6
2018-03-06T07:17:42.751Z,119.8
2018-03-06T07:27:41.400Z,74.3
2018-03-06T07:37:39.964Z,91.7
2018-03-06T07:47:40.389Z,103
2018-03-06T07:57:41.287Z,87.2
2018-03-06T08:07:40.214Z,102.7
2018-03-06T08:17:38.359Z,112
2018-03-06T08:27:38.174Z,96.3
2018-03-06T08:37:36.914Z,97
2018-03-06T08:47:35.897Z,97.8
2018-03-06T08:57:34.711Z,91.8
2018-03-06T09:07:35.892Z,87.7
2018-03-06T09:17:35.682Z,72.7
2018-03-06T09:27:34.737Z,120.8
2018-03-06T09:37:33.262Z,91
2018-03-06T09:47:32.109Z,80
2018-03-06T09:57:31.385Z,71.1
2018-03-06T10:07:30.399Z,62.8
2018-03-06T10:17:29.153Z,92.4
2018-03-06T10:27:28.041Z,72.2
2018-03-06T10:37:26.785Z,90.4
2018-03-06T10:47:25.480Z,100
2018-03-06T10:57:24.032Z,96.3
2018-03-06T11:07:22.716Z,61.3
2018-03-06T11:17:22.404Z,70.6
2018-03-06T11:27:23.850Z,62.7
2018-03-06T11:37:23.159Z,67.6
2018-03-06T11:47:22.737Z,67.7
2018-03-06T11:57:21.744Z,66.3
2018-03-06T12:07:20.388Z,56
2018-03-06T12:17:19.909Z,38.9
2018-03-06T12:27:18.547Z,55.9
2018-03-06T12:37:17.574Z,51.2
2018-03-06T12:47:16.029Z,41.7
2018-03-06T12:57:19.037Z,40.3
2018-03-06T13:07:17.742Z,43.6
2018-03-06T13:17:16.455Z,34.3
2018-03-06T13:27:16.164Z,33.1
2018-03-06T13:37:17.529Z,44.4
2018-03-06T13:47:16.551Z,35.8
2018-03-06T13:57:15.997Z,15.3
2018-03-06T14:07:15.083Z,17.5
2018-03-06T14:17:15.305Z,19.3
2018-03-06T14:27:14.014Z,15.7
2018-03-06T14:37:13.578Z,18.7
2018-03-06T14:47:12.585Z,17.7
2018-03-06T14:57:11.299Z,13.1
2018-03-06T15:07:09.961Z,14.3
2018-03-06T15:17:09.563Z,12.8
2018-03-06T15:27:08.070Z,13.1
2018-03-06T15:37:07.288Z,12.6
2018-03-06T15:47:06.324Z,12
2018-03-06T15:57:05.385Z,11.9
2018-03-06T16:07:07.199Z,12.8
2018-03-06T16:17:07.383Z,13.9
2018-03-06T16:27:06.246Z,15.8
2018-03-06T16:37:09.046Z,11.8
2018-03-06T16:47:07.582Z,11.1
2018-03-06T16:57:06.204Z,8.6
2018-03-06T17:07:04.902Z,9.2
2018-03-06T17:17:03.518Z,11.9
2018-03-06T17:27:02.338Z,11.3
2018-03-06T17:37:00.737Z,11.7
2018-03-06T17:46:59.792Z,10.9
2018-03-06T17:56:58.697Z,10.3
2018-03-06T18:06:57.095Z,9.3
2018-03-06T18:16:55.735Z,10.1
2018-03-06T18:26:54.331Z,10.3
2018-03-06T18:36:53.056Z,12.2
2018-03-06T18:46:51.961Z,11.5
2018-03-06T18:56:50.810Z,10.2
2018-03-06T19:06:49.630Z,10.5
2018-03-06T19:16:48.496Z,11.3
2018-03-06T19:26:49.995Z,9
2018-03-06T19:36:48.483Z,8.3
2018-03-06T19:46:47.280Z,8.7
2018-03-06T19:56:46.428Z,7.5
2018-03-06T20:06:58.082Z,8
2018-03-06T20:17:00.925Z,9.4
2018-03-06T20:26:59.914Z,9.8
2018-03-06T20:36:58.482Z,9.4
2018-03-06T20:46:57.202Z,11.1
2018-03-06T20:56:56.001Z,11.6
2018-03-06T21:06:54.676Z,8.8
2018-03-06T21:16:53.082Z,9.8
2018-03-06T21:26:52.141Z,8.7
2018-03-06T21:36:50.350Z,9.1
2018-03-06T21:46:49.199Z,8.4
2018-03-06T21:56:47.844Z,8
2018-03-06T22:06:46.234Z,9.3
2018-03-06T22:16:45.278Z,9.6
2018-03-06T22:26:43.895Z,9.6
2018-03-06T22:36:41.970Z,9.9
2018-03-06T22:46:40.595Z,8.5
2018-03-06T22:56:39.067Z,7.9
2018-03-06T23:06:37.431Z,8.4
2018-03-06T23:16:35.925Z,9.8
2018-03-06T23:26:34.606Z,9.5
2018-03-06T23:36:33.205Z,8.3
2018-03-06T23:46:31.541Z,8.2
2018-03-06T23:56:30.180Z,8.7
